sensor_id;sensor_type;location;lat;lon;timestamp;P1;durP1;ratioP1;P2;durP2;ratioP2
24713;SDS011;12820;51.580;5.010;2022-12-07T00:04:54;13.45;;;5.90;;
24713;SDS011;12820;51.580;5.010;2022-12-07T00:09:56;12.25;;;5.95;;
24713;SDS011;12820;51.580;5.010;2022-12-07T00:14:59;10.88;;;6.28;;
24713;SDS011;12820;51.580;5.010;2022-12-07T00:20:01;13.98;;;6.93;;
24713;SDS011;12820;51.580;5.010;2022-12-07T00:25:03;14.52;;;7.25;;
24713;SDS011;12820;51.580;5.010;2022-12-07T00:30:06;12.98;;;7.38;;
24713;SDS011;12820;51.580;5.010;2022-12-07T00:35:08;12.85;;;7.55;;
24713;SDS011;12820;51.580;5.010;2022-12-07T00:40:10;11.70;;;6.68;;
24713;SDS011;12820;51.580;5.010;2022-12-07T00:45:13;15.90;;;7.80;;
24713;SDS011;12820;51.580;5.010;2022-12-07T00:50:15;13.60;;;7.15;;
24713;SDS011;12820;51.580;5.010;2022-12-07T00:55:18;11.98;;;6.75;;
24713;SDS011;12820;51.580;5.010;2022-12-07T01:00:20;12.68;;;7.10;;
24713;SDS011;12820;51.580;5.010;2022-12-07T01:05:23;14.77;;;7.35;;
24713;SDS011;12820;51.580;5.010;2022-12-07T01:10:25;16.08;;;7.43;;
24713;SDS011;12820;51.580;5.010;2022-12-07T01:15:27;19.20;;;7.60;;
24713;SDS011;12820;51.580;5.010;2022-12-07T01:20:29;11.57;;;6.13;;
24713;SDS011;12820;51.580;5.010;2022-12-07T01:25:31;16.17;;;7.13;;
24713;SDS011;12820;51.580;5.010;2022-12-07T01:30:33;12.65;;;6.85;;
24713;SDS011;12820;51.580;5.010;2022-12-07T01:35:36;11.02;;;5.20;;
24713;SDS011;12820;51.580;5.010;2022-12-07T01:40:38;11.52;;;6.32;;
24713;SDS011;12820;51.580;5.010;2022-12-07T01:45:40;14.77;;;6.07;;
24713;SDS011;12820;51.580;5.010;2022-12-07T01:50:44;9.40;;;4.85;;
24713;SDS011;12820;51.580;5.010;2022-12-07T01:55:49;10.80;;;5.25;;
24713;SDS011;12820;51.580;5.010;2022-12-07T02:00:54;11.43;;;4.03;;
24713;SDS011;12820;51.580;5.010;2022-12-07T02:05:56;11.07;;;3.80;;
24713;SDS011;12820;51.580;5.010;2022-12-07T02:11:01;13.77;;;3.55;;
24713;SDS011;12820;51.580;5.010;2022-12-07T02:21:09;10.00;;;3.25;;
24713;SDS011;12820;51.580;5.010;2022-12-07T02:31:38;10.65;;;3.83;;
24713;SDS011;12820;51.580;5.010;2022-12-07T02:37:05;16.70;;;5.38;;
24713;SDS011;12820;51.580;5.010;2022-12-07T02:42:15;10.05;;;5.25;;
24713;SDS011;12820;51.580;5.010;2022-12-07T02:47:23;8.15;;;5.15;;
24713;SDS011;12820;51.580;5.010;2022-12-07T02:52:26;11.25;;;5.05;;
24713;SDS011;12820;51.580;5.010;2022-12-07T02:57:42;12.55;;;5.43;;
24713;SDS011;12820;51.580;5.010;2022-12-07T03:03:09;12.70;;;5.63;;
24713;SDS011;12820;51.580;5.010;2022-12-07T03:08:15;13.00;;;6.53;;
24713;SDS011;12820;51.580;5.010;2022-12-07T03:23:54;15.48;;;7.95;;
24713;SDS011;12820;51.580;5.010;2022-12-07T03:28:59;19.13;;;8.52;;
24713;SDS011;12820;51.580;5.010;2022-12-07T03:34:11;19.25;;;8.57;;
24713;SDS011;12820;51.580;5.010;2022-12-07T03:44:20;15.82;;;8.60;;
24713;SDS011;12820;51.580;5.010;2022-12-07T04:00:21;14.48;;;8.68;;
24713;SDS011;12820;51.580;5.010;2022-12-07T04:05:24;19.23;;;9.32;;
24713;SDS011;12820;51.580;5.010;2022-12-07T04:10:26;15.07;;;8.95;;
24713;SDS011;12820;51.580;5.010;2022-12-07T04:15:28;19.05;;;9.60;;
24713;SDS011;12820;51.580;5.010;2022-12-07T04:20:30;18.13;;;9.52;;
24713;SDS011;12820;51.580;5.010;2022-12-07T04:25:32;20.88;;;9.13;;
24713;SDS011;12820;51.580;5.010;2022-12-07T04:30:34;17.52;;;8.43;;
24713;SDS011;12820;51.580;5.010;2022-12-07T04:35:36;16.90;;;7.72;;
24713;SDS011;12820;51.580;5.010;2022-12-07T04:40:38;21.13;;;8.10;;
24713;SDS011;12820;51.580;5.010;2022-12-07T04:45:45;12.90;;;6.35;;
24713;SDS011;12820;51.580;5.010;2022-12-07T04:50:48;15.52;;;7.63;;
24713;SDS011;12820;51.580;5.010;2022-12-07T04:55:53;14.20;;;7.03;;
24713;SDS011;12820;51.580;5.010;2022-12-07T05:00:55;12.23;;;6.70;;
24713;SDS011;12820;51.580;5.010;2022-12-07T05:05:58;19.80;;;7.43;;
24713;SDS011;12820;51.580;5.010;2022-12-07T05:11:01;15.55;;;6.28;;
24713;SDS011;12820;51.580;5.010;2022-12-07T05:16:04;11.23;;;6.10;;
24713;SDS011;12820;51.580;5.010;2022-12-07T05:21:06;14.10;;;6.63;;
24713;SDS011;12820;51.580;5.010;2022-12-07T05:26:08;12.70;;;6.43;;
24713;SDS011;12820;51.580;5.010;2022-12-07T05:31:11;16.45;;;5.93;;
24713;SDS011;12820;51.580;5.010;2022-12-07T05:36:13;12.30;;;5.90;;
24713;SDS011;12820;51.580;5.010;2022-12-07T05:41:16;12.88;;;7.15;;
24713;SDS011;12820;51.580;5.010;2022-12-07T05:46:38;10.52;;;5.93;;
24713;SDS011;12820;51.580;5.010;2022-12-07T05:51:40;11.00;;;6.22;;
24713;SDS011;12820;51.580;5.010;2022-12-07T05:56:42;11.68;;;6.07;;
24713;SDS011;12820;51.580;5.010;2022-12-07T06:01:44;15.35;;;6.50;;
24713;SDS011;12820;51.580;5.010;2022-12-07T06:06:47;11.18;;;6.43;;
24713;SDS011;12820;51.580;5.010;2022-12-07T06:11:49;13.48;;;6.07;;
24713;SDS011;12820;51.580;5.010;2022-12-07T06:17:10;17.07;;;6.63;;
24713;SDS011;12820;51.580;5.010;2022-12-07T06:22:13;14.63;;;6.45;;
24713;SDS011;12820;51.580;5.010;2022-12-07T06:27:17;14.65;;;6.90;;
24713;SDS011;12820;51.580;5.010;2022-12-07T06:32:19;11.85;;;6.13;;
24713;SDS011;12820;51.580;5.010;2022-12-07T06:37:21;11.48;;;6.18;;
24713;SDS011;12820;51.580;5.010;2022-12-07T06:42:24;13.40;;;6.20;;
24713;SDS011;12820;51.580;5.010;2022-12-07T06:47:26;11.18;;;6.13;;
24713;SDS011;12820;51.580;5.010;2022-12-07T06:52:47;12.55;;;5.90;;
24713;SDS011;12820;51.580;5.010;2022-12-07T06:57:49;14.40;;;6.03;;
24713;SDS011;12820;51.580;5.010;2022-12-07T07:02:51;14.65;;;6.35;;
24713;SDS011;12820;51.580;5.010;2022-12-07T07:07:53;11.02;;;6.15;;
24713;SDS011;12820;51.580;5.010;2022-12-07T07:13:15;12.60;;;6.30;;
24713;SDS011;12820;51.580;5.010;2022-12-07T07:18:17;12.82;;;6.22;;
24713;SDS011;12820;51.580;5.010;2022-12-07T07:23:19;13.57;;;6.57;;
24713;SDS011;12820;51.580;5.010;2022-12-07T07:28:22;11.35;;;5.82;;
24713;SDS011;12820;51.580;5.010;2022-12-07T07:33:24;13.10;;;6.50;;
24713;SDS011;12820;51.580;5.010;2022-12-07T07:38:26;13.98;;;6.35;;
24713;SDS011;12820;51.580;5.010;2022-12-07T07:43:28;15.55;;;6.50;;
24713;SDS011;12820;51.580;5.010;2022-12-07T07:48:30;14.57;;;6.90;;
24713;SDS011;12820;51.580;5.010;2022-12-07T07:53:32;15.43;;;6.57;;
24713;SDS011;12820;51.580;5.010;2022-12-07T07:58:35;16.83;;;6.80;;
24713;SDS011;12820;51.580;5.010;2022-12-07T08:03:37;11.88;;;5.78;;
24713;SDS011;12820;51.580;5.010;2022-12-07T08:08:39;12.20;;;5.75;;
24713;SDS011;12820;51.580;5.010;2022-12-07T08:13:41;12.25;;;5.60;;
24713;SDS011;12820;51.580;5.010;2022-12-07T08:18:43;12.38;;;5.53;;
24713;SDS011;12820;51.580;5.010;2022-12-07T08:23:46;15.35;;;6.15;;
24713;SDS011;12820;51.580;5.010;2022-12-07T08:28:48;12.70;;;6.47;;
24713;SDS011;12820;51.580;5.010;2022-12-07T08:33:50;14.27;;;6.10;;
24713;SDS011;12820;51.580;5.010;2022-12-07T08:38:52;15.45;;;6.88;;
24713;SDS011;12820;51.580;5.010;2022-12-07T08:44:14;15.25;;;6.50;;
24713;SDS011;12820;51.580;5.010;2022-12-07T08:49:22;14.85;;;6.22;;
24713;SDS011;12820;51.580;5.010;2022-12-07T08:54:28;11.00;;;5.97;;
24713;SDS011;12820;51.580;5.010;2022-12-07T08:59:30;14.38;;;5.75;;
24713;SDS011;12820;51.580;5.010;2022-12-07T09:04:32;10.75;;;5.43;;
24713;SDS011;12820;51.580;5.010;2022-12-07T09:09:34;11.10;;;4.63;;
24713;SDS011;12820;51.580;5.010;2022-12-07T09:14:36;9.13;;;5.28;;
24713;SDS011;12820;51.580;5.010;2022-12-07T09:19:39;14.25;;;5.65;;
24713;SDS011;12820;51.580;5.010;2022-12-07T09:24:42;14.48;;;5.90;;
24713;SDS011;12820;51.580;5.010;2022-12-07T09:29:45;10.75;;;5.65;;
24713;SDS011;12820;51.580;5.010;2022-12-07T09:34:47;11.90;;;4.63;;
24713;SDS011;12820;51.580;5.010;2022-12-07T09:39:49;14.25;;;5.03;;
24713;SDS011;12820;51.580;5.010;2022-12-07T09:44:51;13.40;;;4.90;;
24713;SDS011;12820;51.580;5.010;2022-12-07T09:50:00;14.65;;;4.82;;
24713;SDS011;12820;51.580;5.010;2022-12-07T09:55:22;9.35;;;4.30;;
24713;SDS011;12820;51.580;5.010;2022-12-07T10:00:28;11.07;;;4.40;;
24713;SDS011;12820;51.580;5.010;2022-12-07T10:06:05;11.65;;;4.38;;
24713;SDS011;12820;51.580;5.010;2022-12-07T10:11:01;10.38;;;4.10;;
24713;SDS011;12820;51.580;5.010;2022-12-07T10:16:05;11.80;;;4.35;;
24713;SDS011;12820;51.580;5.010;2022-12-07T10:21:29;13.25;;;4.20;;
24713;SDS011;12820;51.580;5.010;2022-12-07T10:26:32;10.13;;;4.10;;
24713;SDS011;12820;51.580;5.010;2022-12-07T10:31:38;14.82;;;5.00;;
24713;SDS011;12820;51.580;5.010;2022-12-07T10:36:41;11.98;;;4.55;;
24713;SDS011;12820;51.580;5.010;2022-12-07T10:57:46;12.82;;;4.30;;
24713;SDS011;12820;51.580;5.010;2022-12-07T11:03:01;9.88;;;3.47;;
24713;SDS011;12820;51.580;5.010;2022-12-07T11:08:19;14.30;;;3.80;;
24713;SDS011;12820;51.580;5.010;2022-12-07T11:24:16;8.02;;;3.53;;
24713;SDS011;12820;51.580;5.010;2022-12-07T11:35:08;12.65;;;3.20;;
24713;SDS011;12820;51.580;5.010;2022-12-07T11:40:25;9.45;;;3.08;;
24713;SDS011;12820;51.580;5.010;2022-12-07T11:45:34;11.93;;;3.80;;
24713;SDS011;12820;51.580;5.010;2022-12-07T11:50:45;14.85;;;3.20;;
24713;SDS011;12820;51.580;5.010;2022-12-07T12:06:19;8.88;;;2.20;;
24713;SDS011;12820;51.580;5.010;2022-12-07T12:11:33;10.32;;;2.47;;
24713;SDS011;12820;51.580;5.010;2022-12-07T12:33:35;6.70;;;2.30;;
24713;SDS011;12820;51.580;5.010;2022-12-07T12:54:26;7.28;;;2.00;;
24713;SDS011;12820;51.580;5.010;2022-12-07T12:59:30;8.48;;;2.10;;
24713;SDS011;12820;51.580;5.010;2022-12-07T13:09:54;6.40;;;1.85;;
24713;SDS011;12820;51.580;5.010;2022-12-07T13:14:57;5.22;;;1.80;;
24713;SDS011;12820;51.580;5.010;2022-12-07T13:30:42;7.57;;;1.95;;
24713;SDS011;12820;51.580;5.010;2022-12-07T13:35:48;5.17;;;2.00;;
24713;SDS011;12820;51.580;5.010;2022-12-07T13:46:19;7.20;;;1.90;;
24713;SDS011;12820;51.580;5.010;2022-12-07T13:51:27;4.88;;;1.45;;
24713;SDS011;12820;51.580;5.010;2022-12-07T13:56:34;8.27;;;3.83;;
24713;SDS011;12820;51.580;5.010;2022-12-07T14:01:37;8.20;;;4.00;;
24713;SDS011;12820;51.580;5.010;2022-12-07T14:06:46;5.93;;;3.17;;
24713;SDS011;12820;51.580;5.010;2022-12-07T14:11:55;8.30;;;2.72;;
24713;SDS011;12820;51.580;5.010;2022-12-07T14:17:02;10.45;;;2.33;;
24713;SDS011;12820;51.580;5.010;2022-12-07T14:27:33;6.63;;;2.33;;
24713;SDS011;12820;51.580;5.010;2022-12-07T14:32:36;39.30;;;24.50;;
24713;SDS011;12820;51.580;5.010;2022-12-07T14:37:40;7.50;;;3.10;;
24713;SDS011;12820;51.580;5.010;2022-12-07T14:42:43;15.23;;;8.52;;
24713;SDS011;12820;51.580;5.010;2022-12-07T14:47:47;14.05;;;6.70;;
24713;SDS011;12820;51.580;5.010;2022-12-07T14:53:13;7.65;;;3.38;;
24713;SDS011;12820;51.580;5.010;2022-12-07T14:58:25;11.80;;;7.88;;
24713;SDS011;12820;51.580;5.010;2022-12-07T15:03:27;8.55;;;3.45;;
24713;SDS011;12820;51.580;5.010;2022-12-07T15:08:29;7.65;;;2.70;;
24713;SDS011;12820;51.580;5.010;2022-12-07T15:13:31;9.95;;;4.45;;
24713;SDS011;12820;51.580;5.010;2022-12-07T15:18:52;15.83;;;6.00;;
24713;SDS011;12820;51.580;5.010;2022-12-07T15:24:14;8.10;;;2.55;;
24713;SDS011;12820;51.580;5.010;2022-12-07T15:29:16;4.05;;;1.52;;
24713;SDS011;12820;51.580;5.010;2022-12-07T15:34:24;10.75;;;2.55;;
24713;SDS011;12820;51.580;5.010;2022-12-07T15:39:37;12.05;;;3.17;;
24713;SDS011;12820;51.580;5.010;2022-12-07T15:44:39;6.90;;;2.63;;
24713;SDS011;12820;51.580;5.010;2022-12-07T15:49:59;19.57;;;7.90;;
24713;SDS011;12820;51.580;5.010;2022-12-07T15:55:02;7.20;;;2.60;;
24713;SDS011;12820;51.580;5.010;2022-12-07T16:00:06;6.30;;;2.78;;
24713;SDS011;12820;51.580;5.010;2022-12-07T16:05:10;5.15;;;1.98;;
24713;SDS011;12820;51.580;5.010;2022-12-07T16:10:12;10.30;;;2.55;;
24713;SDS011;12820;51.580;5.010;2022-12-07T16:15:14;7.80;;;2.25;;
24713;SDS011;12820;51.580;5.010;2022-12-07T16:20:23;10.95;;;2.38;;
24713;SDS011;12820;51.580;5.010;2022-12-07T16:25:25;6.00;;;2.03;;
24713;SDS011;12820;51.580;5.010;2022-12-07T16:30:27;5.80;;;2.03;;
24713;SDS011;12820;51.580;5.010;2022-12-07T16:35:29;8.23;;;2.40;;
24713;SDS011;12820;51.580;5.010;2022-12-07T16:40:32;6.78;;;2.47;;
24713;SDS011;12820;51.580;5.010;2022-12-07T16:45:35;13.07;;;3.28;;
24713;SDS011;12820;51.580;5.010;2022-12-07T16:50:39;6.00;;;2.28;;
24713;SDS011;12820;51.580;5.010;2022-12-07T16:55:48;7.07;;;2.73;;
24713;SDS011;12820;51.580;5.010;2022-12-07T17:00:51;7.35;;;2.65;;
24713;SDS011;12820;51.580;5.010;2022-12-07T17:05:54;6.10;;;2.30;;
24713;SDS011;12820;51.580;5.010;2022-12-07T17:11:09;5.88;;;2.55;;
24713;SDS011;12820;51.580;5.010;2022-12-07T17:16:15;8.07;;;2.80;;
24713;SDS011;12820;51.580;5.010;2022-12-07T17:21:18;8.90;;;2.67;;
24713;SDS011;12820;51.580;5.010;2022-12-07T17:26:23;8.73;;;2.95;;
24713;SDS011;12820;51.580;5.010;2022-12-07T17:31:32;7.32;;;2.42;;
24713;SDS011;12820;51.580;5.010;2022-12-07T17:36:35;10.35;;;2.85;;
24713;SDS011;12820;51.580;5.010;2022-12-07T17:41:37;8.32;;;2.70;;
24713;SDS011;12820;51.580;5.010;2022-12-07T17:46:58;5.95;;;2.42;;
24713;SDS011;12820;51.580;5.010;2022-12-07T17:52:03;8.70;;;2.35;;
24713;SDS011;12820;51.580;5.010;2022-12-07T17:57:23;7.40;;;2.35;;
24713;SDS011;12820;51.580;5.010;2022-12-07T18:02:26;6.60;;;2.50;;
24713;SDS011;12820;51.580;5.010;2022-12-07T18:07:28;8.35;;;2.70;;
24713;SDS011;12820;51.580;5.010;2022-12-07T18:12:30;10.02;;;3.17;;
24713;SDS011;12820;51.580;5.010;2022-12-07T18:17:32;8.98;;;3.40;;
24713;SDS011;12820;51.580;5.010;2022-12-07T18:22:34;6.55;;;2.42;;
24713;SDS011;12820;51.580;5.010;2022-12-07T18:27:38;8.18;;;2.90;;
24713;SDS011;12820;51.580;5.010;2022-12-07T18:32:41;14.05;;;3.75;;
24713;SDS011;12820;51.580;5.010;2022-12-07T18:37:43;10.13;;;3.75;;
24713;SDS011;12820;51.580;5.010;2022-12-07T18:42:46;8.95;;;3.85;;
24713;SDS011;12820;51.580;5.010;2022-12-07T18:47:48;13.77;;;4.30;;
24713;SDS011;12820;51.580;5.010;2022-12-07T18:52:50;9.55;;;3.85;;
24713;SDS011;12820;51.580;5.010;2022-12-07T18:57:55;9.70;;;3.70;;
24713;SDS011;12820;51.580;5.010;2022-12-07T19:02:58;8.10;;;3.75;;
24713;SDS011;12820;51.580;5.010;2022-12-07T19:08:01;8.73;;;3.20;;
24713;SDS011;12820;51.580;5.010;2022-12-07T19:13:03;8.23;;;3.58;;
24713;SDS011;12820;51.580;5.010;2022-12-07T19:18:06;9.85;;;3.22;;
24713;SDS011;12820;51.580;5.010;2022-12-07T19:23:09;11.90;;;3.90;;
24713;SDS011;12820;51.580;5.010;2022-12-07T19:28:11;6.97;;;2.95;;
24713;SDS011;12820;51.580;5.010;2022-12-07T19:33:13;9.45;;;2.58;;
24713;SDS011;12820;51.580;5.010;2022-12-07T19:38:15;6.68;;;2.40;;
24713;SDS011;12820;51.580;5.010;2022-12-07T19:43:17;8.32;;;2.45;;
24713;SDS011;12820;51.580;5.010;2022-12-07T19:48:19;9.00;;;3.20;;
24713;SDS011;12820;51.580;5.010;2022-12-07T19:53:21;8.00;;;2.63;;
24713;SDS011;12820;51.580;5.010;2022-12-07T19:58:23;8.57;;;2.58;;
24713;SDS011;12820;51.580;5.010;2022-12-07T20:03:26;7.60;;;2.80;;
24713;SDS011;12820;51.580;5.010;2022-12-07T20:08:28;9.60;;;2.97;;
24713;SDS011;12820;51.580;5.010;2022-12-07T20:13:30;8.32;;;2.28;;
24713;SDS011;12820;51.580;5.010;2022-12-07T20:18:36;13.27;;;3.53;;
24713;SDS011;12820;51.580;5.010;2022-12-07T20:23:38;9.40;;;3.10;;
24713;SDS011;12820;51.580;5.010;2022-12-07T20:28:41;11.80;;;3.72;;
24713;SDS011;12820;51.580;5.010;2022-12-07T20:33:47;8.50;;;3.67;;
24713;SDS011;12820;51.580;5.010;2022-12-07T20:38:49;9.25;;;3.03;;
24713;SDS011;12820;51.580;5.010;2022-12-07T20:43:52;9.48;;;4.57;;
24713;SDS011;12820;51.580;5.010;2022-12-07T20:48:58;9.30;;;3.80;;
24713;SDS011;12820;51.580;5.010;2022-12-07T20:54:01;7.43;;;3.55;;
24713;SDS011;12820;51.580;5.010;2022-12-07T20:59:05;13.95;;;3.90;;
24713;SDS011;12820;51.580;5.010;2022-12-07T21:04:11;11.40;;;3.78;;
24713;SDS011;12820;51.580;5.010;2022-12-07T21:09:13;9.82;;;3.70;;
24713;SDS011;12820;51.580;5.010;2022-12-07T21:14:16;7.70;;;4.15;;
24713;SDS011;12820;51.580;5.010;2022-12-07T21:19:18;7.30;;;2.80;;
24713;SDS011;12820;51.580;5.010;2022-12-07T21:24:20;10.50;;;3.67;;
24713;SDS011;12820;51.580;5.010;2022-12-07T21:29:22;13.30;;;4.63;;
24713;SDS011;12820;51.580;5.010;2022-12-07T21:34:41;7.88;;;3.20;;
24713;SDS011;12820;51.580;5.010;2022-12-07T21:39:43;8.52;;;3.47;;
24713;SDS011;12820;51.580;5.010;2022-12-07T21:44:46;11.65;;;4.20;;
24713;SDS011;12820;51.580;5.010;2022-12-07T21:49:48;7.88;;;4.00;;
24713;SDS011;12820;51.580;5.010;2022-12-07T21:54:50;14.25;;;4.93;;
24713;SDS011;12820;51.580;5.010;2022-12-07T21:59:52;12.95;;;6.22;;
24713;SDS011;12820;51.580;5.010;2022-12-07T22:04:54;13.75;;;6.38;;
24713;SDS011;12820;51.580;5.010;2022-12-07T22:09:56;16.77;;;8.60;;
24713;SDS011;12820;51.580;5.010;2022-12-07T22:14:59;15.35;;;8.52;;
24713;SDS011;12820;51.580;5.010;2022-12-07T22:20:08;16.95;;;9.18;;
24713;SDS011;12820;51.580;5.010;2022-12-07T22:25:11;15.77;;;8.32;;
24713;SDS011;12820;51.580;5.010;2022-12-07T22:30:13;18.65;;;9.60;;
24713;SDS011;12820;51.580;5.010;2022-12-07T22:35:16;16.75;;;9.05;;
24713;SDS011;12820;51.580;5.010;2022-12-07T22:40:18;20.45;;;10.80;;
24713;SDS011;12820;51.580;5.010;2022-12-07T22:45:20;20.80;;;11.32;;
24713;SDS011;12820;51.580;5.010;2022-12-07T22:50:22;20.38;;;10.68;;
24713;SDS011;12820;51.580;5.010;2022-12-07T22:55:24;17.75;;;10.75;;
24713;SDS011;12820;51.580;5.010;2022-12-07T23:00:26;21.05;;;10.85;;
24713;SDS011;12820;51.580;5.010;2022-12-07T23:05:28;21.83;;;11.25;;
24713;SDS011;12820;51.580;5.010;2022-12-07T23:10:32;18.52;;;10.35;;
24713;SDS011;12820;51.580;5.010;2022-12-07T23:15:35;23.02;;;11.45;;
24713;SDS011;12820;51.580;5.010;2022-12-07T23:20:38;16.90;;;9.35;;
24713;SDS011;12820;51.580;5.010;2022-12-07T23:25:40;18.73;;;10.55;;
24713;SDS011;12820;51.580;5.010;2022-12-07T23:30:42;19.58;;;10.85;;
24713;SDS011;12820;51.580;5.010;2022-12-07T23:35:44;23.77;;;11.13;;
24713;SDS011;12820;51.580;5.010;2022-12-07T23:40:47;19.98;;;11.18;;
24713;SDS011;12820;51.580;5.010;2022-12-07T23:45:49;18.58;;;10.57;;
24713;SDS011;12820;51.580;5.010;2022-12-07T23:50:54;21.27;;;11.80;;
24713;SDS011;12820;51.580;5.010;2022-12-07T23:55:57;22.83;;;11.95;;
